createdAt,value
2022-10-15T00:01:22.218Z,13.20
2022-10-15T00:03:48.944Z,13.30
2022-10-15T00:06:17.208Z,13.20
2022-10-15T00:08:44.179Z,13.30
2022-10-15T00:11:13.454Z,13.30
2022-10-15T00:13:40.505Z,13.30
2022-10-15T00:16:08.905Z,13.30
2022-10-15T00:18:35.572Z,13.30
2022-10-15T00:21:02.285Z,13.30
2022-10-15T00:23:29.001Z,13.30
2022-10-15T00:26:21.954Z,13.30
2022-10-15T00:28:52.778Z,13.30
2022-10-15T00:31:24.421Z,13.30
2022-10-15T00:33:51.701Z,13.30
2022-10-15T00:36:22.641Z,13.30
2022-10-15T00:38:49.895Z,14.80
2022-10-15T00:41:21.673Z,15.00
2022-10-15T00:43:50.615Z,13.30
2022-10-15T00:46:20.602Z,15.10
2022-10-15T00:48:49.427Z,15.90
2022-10-15T00:51:17.934Z,16.10
2022-10-15T00:53:44.809Z,16.00
2022-10-15T00:56:12.337Z,13.40
2022-10-15T00:58:39.053Z,13.40
2022-10-15T01:01:05.827Z,13.40
2022-10-15T01:03:35.236Z,14.60
2022-10-15T01:06:03.251Z,13.40
2022-10-15T01:08:30.193Z,13.50
2022-10-15T01:11:02.997Z,13.40
2022-10-15T01:13:47.279Z,13.40
2022-10-15T01:16:32.766Z,13.40
2022-10-15T01:19:01.983Z,13.40
2022-10-15T01:21:34.505Z,14.10
2022-10-15T01:24:22.257Z,13.40
2022-10-15T01:26:48.940Z,13.40
2022-10-15T01:29:34.093Z,13.90
2022-10-15T01:32:08.519Z,13.40
2022-10-15T01:34:55.792Z,13.40
2022-10-15T01:37:34.410Z,13.50
2022-10-15T01:40:21.294Z,13.50
2022-10-15T01:43:02.807Z,13.50
2022-10-15T01:45:35.129Z,13.50
2022-10-15T01:48:09.570Z,14.60
2022-10-15T01:50:37.690Z,13.50
2022-10-15T01:53:05.981Z,13.60
2022-10-15T01:55:33.127Z,14.40
2022-10-15T01:58:00.297Z,14.40
2022-10-15T02:00:27.177Z,13.50
2022-10-15T02:02:58.827Z,14.40
2022-10-15T02:05:29.445Z,14.40
2022-10-15T02:08:14.579Z,13.60
2022-10-15T02:10:41.198Z,13.60
2022-10-15T02:13:22.785Z,13.60
2022-10-15T02:16:03.123Z,13.60
2022-10-15T02:18:48.559Z,13.60
2022-10-15T02:21:24.665Z,13.60
2022-10-15T02:24:09.156Z,13.60
2022-10-15T02:26:36.913Z,13.60
2022-10-15T02:29:06.171Z,13.60
2022-10-15T02:31:35.116Z,13.70
2022-10-15T02:34:04.097Z,14.70
2022-10-15T02:36:31.125Z,13.80
2022-10-15T02:38:59.957Z,13.70
2022-10-15T02:41:28.223Z,14.40
2022-10-15T02:43:54.857Z,13.80
2022-10-15T02:46:21.599Z,13.80
2022-10-15T02:48:48.217Z,14.50
2022-10-15T02:51:14.925Z,13.90
2022-10-15T02:53:41.669Z,15.10
2022-10-15T02:56:08.286Z,13.90
2022-10-15T02:58:34.831Z,13.90
2022-10-15T03:01:01.503Z,16.50
2022-10-15T03:03:28.113Z,16.50
2022-10-15T03:05:54.724Z,14.00
2022-10-15T03:08:21.288Z,13.90
2022-10-15T03:10:48.013Z,14.00
2022-10-15T03:13:14.711Z,16.60
2022-10-15T03:15:41.257Z,15.80
2022-10-15T03:18:08.034Z,14.00
2022-10-15T03:20:35.093Z,15.70
2022-10-15T03:23:02.090Z,15.00
2022-10-15T03:25:28.712Z,14.00
2022-10-15T03:27:56.099Z,14.10
2022-10-15T03:30:22.660Z,14.00
2022-10-15T03:32:49.284Z,16.90
2022-10-15T03:35:16.169Z,16.80
2022-10-15T03:37:42.768Z,14.00
2022-10-15T03:40:13.509Z,14.00
2022-10-15T03:42:41.399Z,14.10
2022-10-15T03:45:08.350Z,14.60
2022-10-15T03:47:35.028Z,14.10
2022-10-15T03:50:01.695Z,14.10
2022-10-15T03:52:28.229Z,14.10
2022-10-15T03:54:54.858Z,14.10
2022-10-15T03:57:21.562Z,14.20
2022-10-15T03:59:48.194Z,14.10
2022-10-15T04:02:14.808Z,15.30
2022-10-15T04:04:41.436Z,15.80
2022-10-15T04:07:08.064Z,15.10
2022-10-15T04:09:34.785Z,14.20
2022-10-15T04:12:01.417Z,14.20
2022-10-15T04:14:27.984Z,14.20
2022-10-15T04:16:55.983Z,14.20
2022-10-15T04:19:22.598Z,14.20
2022-10-15T04:21:49.239Z,14.70
2022-10-15T04:24:15.863Z,14.10
2022-10-15T04:26:42.509Z,14.10
2022-10-15T04:29:09.150Z,14.10
2022-10-15T04:31:37.528Z,15.20
2022-10-15T04:34:04.450Z,14.10
2022-10-15T04:36:31.033Z,14.00
2022-10-15T04:38:57.656Z,15.10
2022-10-15T04:41:24.285Z,14.60
2022-10-15T04:43:50.915Z,14.00
2022-10-15T04:46:17.552Z,14.00
2022-10-15T04:48:44.286Z,14.10
2022-10-15T04:51:15.539Z,14.00
2022-10-15T04:53:42.215Z,14.10
2022-10-15T04:56:13.722Z,14.00
2022-10-15T04:58:40.333Z,15.00
2022-10-15T05:01:08.767Z,13.90
2022-10-15T05:03:38.465Z,14.00
2022-10-15T05:06:08.988Z,13.90
2022-10-15T05:08:36.561Z,13.90
2022-10-15T05:11:04.375Z,14.50
2022-10-15T05:13:31.543Z,13.90
2022-10-15T05:15:58.393Z,13.90
2022-10-15T05:18:24.985Z,13.90
2022-10-15T05:20:51.608Z,13.80
2022-10-15T05:23:18.320Z,13.80
2022-10-15T05:25:45.023Z,14.40
2022-10-15T05:28:11.626Z,13.80
2022-10-15T05:30:38.215Z,13.80
2022-10-15T05:33:04.778Z,13.80
2022-10-15T05:35:31.460Z,14.70
2022-10-15T05:37:58.013Z,15.10
2022-10-15T05:40:24.637Z,15.60
2022-10-15T05:42:55.248Z,13.70
2022-10-15T05:45:22.078Z,14.50
2022-10-15T05:47:48.683Z,13.70
2022-10-15T05:50:15.434Z,15.20
2022-10-15T05:52:42.155Z,13.80
2022-10-15T05:55:08.884Z,13.70
2022-10-15T05:57:35.432Z,13.70
2022-10-15T06:00:02.374Z,13.70
2022-10-15T06:02:29.543Z,13.70
2022-10-15T06:04:56.505Z,15.00
2022-10-15T06:07:23.363Z,13.70
2022-10-15T06:09:50.280Z,16.10
2022-10-15T06:12:16.900Z,15.20
2022-10-15T06:14:43.501Z,13.80
2022-10-15T06:17:10.142Z,15.40
2022-10-15T06:19:36.727Z,13.70
2022-10-15T06:22:03.467Z,14.30
2022-10-15T06:24:30.030Z,13.70
2022-10-15T06:26:58.337Z,14.20
2022-10-15T06:29:24.925Z,13.70
2022-10-15T06:31:51.491Z,13.70
2022-10-15T06:34:18.389Z,13.70
2022-10-15T06:36:45.031Z,13.00
2022-10-15T06:39:12.487Z,13.90
2022-10-15T06:41:39.074Z,13.80
2022-10-15T06:44:05.645Z,13.90
2022-10-15T06:46:32.234Z,13.80
2022-10-15T06:48:58.827Z,13.80
2022-10-15T06:51:25.465Z,13.80
2022-10-15T06:53:52.134Z,13.80
2022-10-15T06:56:18.978Z,13.90
2022-10-15T06:58:45.581Z,14.00
2022-10-15T07:01:12.233Z,13.90
2022-10-15T07:03:41.860Z,16.40
2022-10-15T07:06:09.303Z,13.90
2022-10-15T07:08:36.271Z,14.00
2022-10-15T07:11:04.100Z,15.00
2022-10-15T07:13:30.762Z,14.10
2022-10-15T07:15:57.399Z,15.50
2022-10-15T07:18:24.116Z,14.10
2022-10-15T07:20:50.696Z,14.10
2022-10-15T07:23:17.297Z,15.20
2022-10-15T07:25:44.032Z,14.30
2022-10-15T07:28:10.618Z,14.80
2022-10-15T07:30:37.240Z,14.40
2022-10-15T07:33:03.830Z,15.10
2022-10-15T07:35:30.450Z,14.50
2022-10-15T07:38:00.172Z,15.20
2022-10-15T07:40:26.756Z,14.60
2022-10-15T07:42:54.420Z,17.10
2022-10-15T07:45:21.244Z,14.60
2022-10-15T07:47:47.855Z,14.70
2022-10-15T07:50:14.601Z,14.70
2022-10-15T07:52:41.440Z,17.10
2022-10-15T07:55:08.282Z,14.70
2022-10-15T07:57:35.021Z,14.80
2022-10-15T08:00:01.696Z,14.90
2022-10-15T08:02:28.437Z,14.80
2022-10-15T08:04:55.254Z,14.80
2022-10-15T08:07:21.898Z,14.80
2022-10-15T08:09:48.897Z,16.60
2022-10-15T08:12:15.487Z,15.10
2022-10-15T08:14:42.090Z,16.50
2022-10-15T08:17:08.702Z,14.90
2022-10-15T08:19:35.311Z,14.90
2022-10-15T08:22:01.904Z,15.00
2022-10-15T08:24:30.184Z,15.30
2022-10-15T08:26:57.316Z,16.80
2022-10-15T08:29:24.193Z,15.20
2022-10-15T08:31:51.154Z,15.90
2022-10-15T08:34:17.777Z,15.50
2022-10-15T08:36:44.402Z,15.70
2022-10-15T08:39:11.237Z,15.40
2022-10-15T08:41:39.556Z,16.20
2022-10-15T08:44:07.235Z,15.50
2022-10-15T08:46:37.233Z,15.50
2022-10-15T08:49:04.804Z,15.50
2022-10-15T08:51:31.332Z,16.60
2022-10-15T08:53:59.725Z,15.30
2022-10-15T08:56:26.272Z,15.30
2022-10-15T08:59:03.715Z,15.30
2022-10-15T09:01:37.595Z,15.40
2022-10-15T09:04:13.638Z,16.60
2022-10-15T09:06:40.479Z,15.50
2022-10-15T09:09:20.462Z,15.60
2022-10-15T09:12:07.399Z,15.60
2022-10-15T09:14:43.032Z,15.70
2022-10-15T09:17:25.040Z,15.80
2022-10-15T09:19:55.724Z,15.80
2022-10-15T09:22:25.564Z,15.80
2022-10-15T09:24:52.759Z,15.90
2022-10-15T09:27:30.251Z,17.60
2022-10-15T09:30:05.937Z,16.00
2022-10-15T09:32:36.521Z,15.90
2022-10-15T09:35:16.180Z,16.00
2022-10-15T09:38:05.723Z,16.00
2022-10-15T09:40:51.189Z,15.90
2022-10-15T09:43:23.860Z,15.90
2022-10-15T09:45:50.429Z,15.90
2022-10-15T09:48:18.917Z,15.90
2022-10-15T09:50:50.092Z,16.90
2022-10-15T09:53:31.860Z,16.60
2022-10-15T09:56:09.096Z,15.90
2022-10-15T09:58:41.642Z,16.00
2022-10-15T10:01:16.400Z,16.00
2022-10-15T10:03:43.049Z,16.10
2022-10-15T10:06:11.133Z,16.60
2022-10-15T10:11:19.662Z,16.30
2022-10-15T10:13:50.746Z,16.30
2022-10-15T10:16:19.349Z,16.30
2022-10-15T10:19:01.516Z,16.40
2022-10-15T10:21:33.489Z,16.50
2022-10-15T10:24:18.473Z,16.60
2022-10-15T10:26:45.885Z,16.60
2022-10-15T10:29:32.917Z,16.60
2022-10-15T10:32:00.450Z,17.30
2022-10-15T10:34:27.838Z,16.60
2022-10-15T10:36:55.010Z,16.70
2022-10-15T10:39:26.763Z,18.50
2022-10-15T10:41:57.770Z,16.90
2022-10-15T10:44:30.137Z,16.90
2022-10-15T10:47:03.216Z,17.00
2022-10-15T10:49:33.951Z,17.10
2022-10-15T10:52:00.567Z,17.20
2022-10-15T10:54:28.619Z,17.20
2022-10-15T10:56:55.877Z,19.20
2022-10-15T10:59:22.607Z,17.20
2022-10-15T11:01:49.805Z,19.30
2022-10-15T11:04:36.897Z,17.20
2022-10-15T11:07:17.240Z,17.20
2022-10-15T11:09:43.797Z,17.20
2022-10-15T11:12:10.333Z,17.20
2022-10-15T11:14:55.687Z,17.10
2022-10-15T11:17:28.804Z,17.20
2022-10-15T11:23:09.619Z,17.30
2022-10-15T11:25:46.708Z,17.20
2022-10-15T11:28:33.136Z,17.30
2022-10-15T11:31:03.374Z,17.20
2022-10-15T11:33:30.014Z,17.20
2022-10-15T11:36:05.446Z,17.20
2022-10-15T11:38:35.070Z,17.20
2022-10-15T11:41:01.645Z,17.20
2022-10-15T11:43:28.268Z,17.30
2022-10-15T11:46:13.209Z,17.30
2022-10-15T11:48:49.280Z,17.30
2022-10-15T11:51:25.109Z,17.30
2022-10-15T11:54:10.637Z,17.30
2022-10-15T11:56:39.836Z,17.30
2022-10-15T11:59:09.455Z,17.30
2022-10-15T12:01:38.679Z,17.30
2022-10-15T12:04:32.722Z,17.30
2022-10-15T12:07:01.371Z,17.30
2022-10-15T12:09:34.204Z,17.30
2022-10-15T12:12:07.326Z,18.80
2022-10-15T12:14:40.447Z,17.20
2022-10-15T12:17:25.904Z,17.20
2022-10-15T12:19:55.384Z,17.10
2022-10-15T12:22:34.098Z,17.10
2022-10-15T12:25:01.700Z,17.20
2022-10-15T12:27:36.021Z,17.20
2022-10-15T12:30:02.814Z,17.30
2022-10-15T12:32:31.245Z,17.30
2022-10-15T12:35:02.277Z,18.10
2022-10-15T12:37:30.656Z,17.40
2022-10-15T12:39:58.802Z,17.40
2022-10-15T12:42:30.633Z,17.40
2022-10-15T12:44:59.127Z,17.40
2022-10-15T12:47:46.205Z,17.90
2022-10-15T12:50:17.852Z,17.20
2022-10-15T12:52:51.462Z,17.30
2022-10-15T12:55:23.310Z,17.30
2022-10-15T12:57:54.214Z,17.40
2022-10-15T13:00:26.645Z,17.40
2022-10-15T13:02:54.940Z,17.50
2022-10-15T13:05:24.409Z,17.40
2022-10-15T13:07:51.745Z,17.40
2022-10-15T13:10:20.674Z,17.30
2022-10-15T13:12:51.896Z,17.20
2022-10-15T13:15:18.843Z,17.10
2022-10-15T13:17:45.912Z,17.10
2022-10-15T13:20:38.943Z,17.40
2022-10-15T13:23:29.997Z,17.10
2022-10-15T13:26:13.370Z,17.10
2022-10-15T13:28:44.437Z,17.00
2022-10-15T13:31:17.059Z,17.00
2022-10-15T13:33:45.023Z,16.90
2022-10-15T13:36:25.437Z,16.90
2022-10-15T13:39:06.484Z,17.00
2022-10-15T13:41:34.766Z,17.00
2022-10-15T13:44:02.579Z,18.50
2022-10-15T13:46:33.584Z,18.50
2022-10-15T13:49:01.135Z,17.00
2022-10-15T13:51:31.808Z,17.10
2022-10-15T13:53:59.372Z,16.90
2022-10-15T13:56:30.838Z,16.90
2022-10-15T13:58:59.290Z,16.90
2022-10-15T14:01:26.653Z,16.80
2022-10-15T14:03:53.212Z,16.90
2022-10-15T14:06:22.915Z,16.90
2022-10-15T14:08:53.834Z,16.90
2022-10-15T14:11:20.717Z,16.90
2022-10-15T14:13:48.628Z,17.60
2022-10-15T14:16:15.291Z,18.40
2022-10-15T14:18:49.002Z,17.00
2022-10-15T14:21:20.412Z,17.00
2022-10-15T14:23:47.905Z,17.00
2022-10-15T14:26:15.252Z,18.50
2022-10-15T14:28:43.295Z,17.70
2022-10-15T14:31:25.289Z,17.10
2022-10-15T14:33:52.020Z,17.20
2022-10-15T14:36:19.574Z,18.40
2022-10-15T14:38:46.567Z,17.20
2022-10-15T14:41:27.438Z,18.20
2022-10-15T14:44:05.455Z,16.70
2022-10-15T14:46:38.031Z,17.30
2022-10-15T14:49:13.847Z,17.30
2022-10-15T14:51:40.429Z,17.30
2022-10-15T14:54:07.056Z,17.30
2022-10-15T14:56:33.733Z,17.20
2022-10-15T14:59:01.274Z,17.20
2022-10-15T15:01:29.566Z,17.20
2022-10-15T15:03:56.969Z,18.10
2022-10-15T15:06:23.705Z,17.20
2022-10-15T15:08:50.416Z,17.20
2022-10-15T15:11:22.225Z,17.20
2022-10-15T15:13:49.670Z,17.20
2022-10-15T15:16:17.270Z,17.20
2022-10-15T15:18:46.210Z,17.30
2022-10-15T15:21:15.263Z,17.30
2022-10-15T15:23:42.430Z,17.30
2022-10-15T15:26:09.049Z,17.30
2022-10-15T15:28:35.702Z,17.20
2022-10-15T15:31:05.371Z,17.20
2022-10-15T15:33:32.477Z,17.10
2022-10-15T15:36:07.537Z,17.00
2022-10-15T15:41:13.524Z,17.00
2022-10-15T15:43:40.300Z,16.70
2022-10-15T15:46:06.905Z,16.60
2022-10-15T15:48:33.504Z,16.40
2022-10-15T15:51:04.498Z,16.30
2022-10-15T15:53:31.309Z,16.20
2022-10-15T15:55:58.217Z,16.90
2022-10-15T15:58:24.814Z,16.10
2022-10-15T16:00:51.461Z,16.10
2022-10-15T16:03:18.083Z,16.10
2022-10-15T16:05:45.124Z,16.00
2022-10-15T16:08:12.731Z,16.00
2022-10-15T16:10:39.362Z,16.00
2022-10-15T16:13:05.928Z,15.90
2022-10-15T16:15:32.513Z,16.30
2022-10-15T16:17:59.121Z,17.50
2022-10-15T16:20:25.718Z,16.30
2022-10-15T16:22:52.976Z,15.80
2022-10-15T16:25:20.293Z,16.80
2022-10-15T16:27:48.860Z,15.80
2022-10-15T16:30:15.946Z,15.60
2022-10-15T16:32:42.605Z,15.70
2022-10-15T16:35:09.399Z,15.70
2022-10-15T16:37:36.084Z,15.70
2022-10-15T16:40:02.822Z,15.70
2022-10-15T16:42:29.632Z,15.60
2022-10-15T16:44:56.264Z,16.30
2022-10-15T16:47:23.218Z,15.50
2022-10-15T16:49:50.066Z,15.50
2022-10-15T16:52:16.724Z,15.50
2022-10-15T16:54:43.408Z,16.90
2022-10-15T16:57:09.964Z,15.40
2022-10-15T16:59:36.555Z,15.90
2022-10-15T17:02:03.536Z,15.40
2022-10-15T17:04:30.233Z,15.50
2022-10-15T17:06:56.797Z,15.30
2022-10-15T17:09:23.862Z,16.40
2022-10-15T17:11:50.464Z,15.30
2022-10-15T17:14:17.478Z,15.40
2022-10-15T17:16:45.258Z,15.30
2022-10-15T17:19:12.594Z,17.40
2022-10-15T17:21:42.341Z,15.30
2022-10-15T17:24:11.938Z,15.80
2022-10-15T17:26:40.520Z,15.30
2022-10-15T17:29:08.784Z,15.40
2022-10-15T17:31:35.480Z,16.00
2022-10-15T17:34:03.877Z,15.30
2022-10-15T17:36:31.648Z,15.20
2022-10-15T17:39:01.107Z,15.20
2022-10-15T17:41:29.201Z,15.20
2022-10-15T17:43:55.845Z,15.30
2022-10-15T17:46:26.587Z,15.20
2022-10-15T17:48:53.446Z,15.10
2022-10-15T17:51:21.532Z,15.70
2022-10-15T17:53:50.845Z,15.50
2022-10-15T17:56:18.535Z,15.20
2022-10-15T17:58:45.467Z,17.80
2022-10-15T18:01:12.861Z,15.10
2022-10-15T18:03:39.482Z,15.30
2022-10-15T18:06:13.448Z,15.10
2022-10-15T18:08:40.399Z,15.10
2022-10-15T18:11:07.245Z,17.00
2022-10-15T18:13:33.868Z,15.10
2022-10-15T18:16:00.591Z,15.10
2022-10-15T18:18:27.922Z,16.60
2022-10-15T18:20:55.111Z,15.10
2022-10-15T18:23:22.342Z,15.10
2022-10-15T18:25:49.051Z,15.10
2022-10-15T18:28:15.756Z,15.10
2022-10-15T18:30:42.594Z,15.10
2022-10-15T18:33:10.501Z,15.10
2022-10-15T18:35:38.416Z,15.80
2022-10-15T18:38:04.993Z,15.10
2022-10-15T18:40:34.317Z,15.10
2022-10-15T18:43:03.454Z,17.00
2022-10-15T18:45:30.580Z,15.00
2022-10-15T18:47:57.344Z,16.90
2022-10-15T18:50:23.973Z,15.00
2022-10-15T18:52:50.559Z,15.00
2022-10-15T18:55:17.466Z,15.00
2022-10-15T18:57:44.090Z,16.40
2022-10-15T19:00:11.599Z,14.90
2022-10-15T19:02:38.281Z,14.90
2022-10-15T19:05:05.059Z,14.90
2022-10-15T19:07:31.854Z,14.90
2022-10-15T19:09:58.550Z,15.80
2022-10-15T19:12:25.761Z,16.20
2022-10-15T19:14:52.548Z,14.90
2022-10-15T19:17:19.205Z,14.90
2022-10-15T19:19:50.062Z,14.90
2022-10-15T19:22:17.277Z,16.30
2022-10-15T19:24:43.885Z,15.30
2022-10-15T19:29:42.073Z,15.20
2022-10-15T19:32:08.743Z,15.30
2022-10-15T19:34:35.789Z,15.30
2022-10-15T19:37:02.591Z,14.90
2022-10-15T19:39:29.267Z,14.80
2022-10-15T19:41:55.906Z,16.20
2022-10-15T19:44:25.867Z,14.80
2022-10-15T19:46:53.133Z,14.80
2022-10-15T19:49:19.759Z,15.50
2022-10-15T19:51:47.380Z,16.90
2022-10-15T19:54:14.197Z,16.00
2022-10-15T19:56:40.942Z,14.80
2022-10-15T19:59:07.586Z,15.00
2022-10-15T20:01:34.301Z,14.80
2022-10-15T20:04:04.946Z,14.80
2022-10-15T20:06:33.850Z,15.60
2022-10-15T20:09:02.144Z,14.70
2022-10-15T20:11:28.872Z,15.00
2022-10-15T20:13:55.471Z,15.90
2022-10-15T20:16:23.286Z,14.90
2022-10-15T20:18:50.834Z,14.60
2022-10-15T20:21:17.522Z,14.60
2022-10-15T20:23:44.581Z,15.00
2022-10-15T20:26:12.284Z,14.60
2022-10-15T20:28:39.863Z,14.60
2022-10-15T20:31:07.514Z,15.80
2022-10-15T20:33:34.189Z,14.60
2022-10-15T20:36:05.183Z,14.60
2022-10-15T20:38:32.410Z,14.60
2022-10-15T20:40:59.037Z,14.60
2022-10-15T20:43:25.722Z,14.50
2022-10-15T20:45:52.425Z,15.60
2022-10-15T20:48:21.177Z,14.50
2022-10-15T20:50:49.357Z,15.80
2022-10-15T20:53:16.041Z,14.40
2022-10-15T20:55:42.757Z,14.80
2022-10-15T20:58:09.521Z,16.10
2022-10-15T21:00:36.306Z,14.40
2022-10-15T21:03:02.906Z,14.50
2022-10-15T21:05:29.633Z,14.40
2022-10-15T21:07:59.492Z,15.80
2022-10-15T21:10:26.122Z,14.40
2022-10-15T21:12:52.865Z,15.60
2022-10-15T21:15:20.327Z,15.50
2022-10-15T21:17:47.040Z,14.40
2022-10-15T21:20:13.704Z,14.80
2022-10-15T21:22:40.336Z,14.40
2022-10-15T21:25:07.118Z,14.40
2022-10-15T21:27:33.913Z,14.40
2022-10-15T21:30:00.534Z,16.60
2022-10-15T21:32:27.469Z,14.40
2022-10-15T21:34:54.062Z,14.40
2022-10-15T21:37:20.616Z,14.60
2022-10-15T21:39:47.281Z,14.40
2022-10-15T21:42:13.980Z,14.40
2022-10-15T21:44:40.586Z,14.40
2022-10-15T21:47:09.283Z,14.40
2022-10-15T21:49:38.299Z,15.70
2022-10-15T21:52:04.930Z,14.90
2022-10-15T21:54:31.489Z,14.40
2022-10-15T21:56:58.069Z,14.40
2022-10-15T21:59:24.691Z,15.70
2022-10-15T22:01:51.344Z,15.50
2022-10-15T22:04:17.997Z,14.80
2022-10-15T22:06:44.608Z,14.50
2022-10-15T22:09:11.320Z,14.40
2022-10-15T22:11:39.448Z,14.50
2022-10-15T22:14:07.342Z,14.40
2022-10-15T22:16:34.792Z,14.40
2022-10-15T22:19:01.384Z,14.40
2022-10-15T22:21:29.310Z,14.30
2022-10-15T22:24:03.569Z,14.30
2022-10-15T22:26:31.290Z,14.30
2022-10-15T22:28:58.968Z,15.20
2022-10-15T22:31:26.029Z,14.20
2022-10-15T22:33:52.668Z,14.20
2022-10-15T22:36:20.759Z,14.60
2022-10-15T22:38:48.261Z,15.50
2022-10-15T22:41:15.344Z,14.20
2022-10-15T22:43:41.952Z,14.50
2022-10-15T22:46:08.622Z,15.20
2022-10-15T22:48:36.050Z,15.30
2022-10-15T22:51:03.388Z,15.20
2022-10-15T22:53:30.060Z,14.20
2022-10-15T22:55:57.420Z,14.20
2022-10-15T22:58:24.996Z,14.10
2022-10-15T23:00:52.338Z,14.20
2022-10-15T23:03:19.493Z,14.80
2022-10-15T23:05:55.336Z,15.50
2022-10-15T23:08:22.478Z,14.10
2022-10-15T23:10:49.272Z,14.10
2022-10-15T23:13:16.108Z,14.10
2022-10-15T23:15:42.675Z,15.20
2022-10-15T23:18:09.249Z,14.70
2022-10-15T23:20:37.223Z,14.10
2022-10-15T23:23:04.824Z,14.50
2022-10-15T23:25:36.497Z,14.10
2022-10-15T23:28:03.137Z,14.10
2022-10-15T23:30:29.696Z,14.10
2022-10-15T23:32:56.297Z,14.50
2022-10-15T23:35:23.070Z,14.10
2022-10-15T23:37:49.708Z,14.20
2022-10-15T23:40:16.297Z,14.00
2022-10-15T23:42:42.930Z,14.40
2022-10-15T23:45:09.749Z,14.30
2022-10-15T23:47:36.508Z,14.00
2022-10-15T23:50:03.247Z,14.20
2022-10-15T23:52:31.069Z,14.00
2022-10-15T23:54:57.650Z,14.10
2022-10-15T23:57:24.663Z,15.40
2022-10-15T23:59:51.486Z,15.90
